Terminal Aerodrome Forecast
Issued by NWS Duluth, MN

Current Version | Previous Version | Text Only | Print | Product List | Glossary On
Versions: 1 2 3 4 5 6 7 8 9 10 11 12 13 14 15 16 17 18 19 20 21 22 23 24 25 26
570
FTUS43 KDLH 291731
TAFDLH
TAF
KDLH 291731Z 2918/3018 25009KT P6SM SCT110
     FM292100 24011G16KT P6SM VCTS SCT030CB BKN150
      TEMPO 2922/3002 6SM TSRA BR BKN030CB
     FM300300 26007KT P6SM SCT040
     FM300500 32006KT P6SM FEW040
     FM301600 32010KT P6SM SCT040=

USA.gov is the U.S. government's official web portal to all federal, state and local government web resources and services.